Time;durP1;ratioP1;P1;durP2;ratioP2;P2;SDS_P1;SDS_P2;PMS_P1;PMS_P2;Temp;Humidity;BMP_temperature;BMP_pressure;BME280_temperature;BME280_humidity;BME280_pressure;Samples;Min_cycle;Max_cycle;Signal;HPM_P1;HPM_P2
2023/11/07 00:00:10;;;;;;;19.40;12.38;;;307.70;2304.00;;;;;;5036551;28;20041;-66
2023/11/07 00:02:36;;;;;;;13.25;6.88;;;307.70;2304.00;;;;;;5044217;28;20033;-69
2023/11/07 00:05:02;;;;;;;24.17;9.48;;;307.80;2304.00;;;;;;5040157;28;20017;-70
2023/11/07 00:07:28;;;;;;;13.23;6.35;;;307.60;2304.00;;;;;;5031480;28;20476;-67
2023/11/07 00:09:54;;;;;;;11.23;6.05;;;307.70;2304.00;;;;;;5031533;28;20068;-67
2023/11/07 00:12:20;;;;;;;24.90;14.38;;;307.70;2304.00;;;;;;5034857;28;20072;-69
2023/11/07 00:14:46;;;;;;;18.23;9.80;;;307.60;2304.00;;;;;;5040919;28;20065;-67
2023/11/07 00:17:12;;;;;;;17.70;10.48;;;307.60;2304.00;;;;;;5030861;28;20056;-68
2023/11/07 00:19:38;;;;;;;25.75;14.00;;;307.60;2304.00;;;;;;5030989;28;20040;-71
2023/11/07 00:22:04;;;;;;;20.00;8.85;;;307.70;2304.00;;;;;;5046451;28;20044;-67
2023/11/07 00:24:30;;;;;;;22.13;13.35;;;307.60;2304.00;;;;;;5039942;28;20156;-70
2023/11/07 00:26:57;;;;;;;34.65;20.77;;;307.60;2304.00;;;;;;5030628;28;20104;-70
2023/11/07 00:29:23;;;;;;;23.10;13.02;;;307.50;2304.00;;;;;;5030951;28;20033;-67
2023/11/07 00:31:51;;;;;;;33.65;19.10;;;307.50;2304.00;;;;;;5025302;28;20025;-66
2023/11/07 00:34:17;;;;;;;60.40;33.03;;;307.40;2304.00;;;;;;5027208;28;20630;-65
2023/11/07 00:36:44;;;;;;;72.70;41.42;;;307.30;2304.00;;;;;;5035761;28;20483;-66
2023/11/07 00:39:11;;;;;;;86.65;47.28;;;307.40;2304.00;;;;;;5036067;28;20103;-69
2023/11/07 00:41:36;;;;;;;103.13;59.10;;;307.30;2304.00;;;;;;5040619;28;20060;-72
2023/11/07 00:44:02;;;;;;;37.85;23.25;;;282.40;2278.40;;;;;;5046410;28;20045;-69
2023/11/07 00:46:28;;;;;;;27.48;18.60;;;282.10;2278.40;;;;;;5039115;28;20114;-71
2023/11/07 00:48:54;;;;;;;30.05;18.23;;;282.50;2278.40;;;;;;5042945;28;20037;-66
2023/11/07 00:51:19;;;;;;;45.67;23.67;;;282.50;2278.40;;;;;;5031513;28;20021;-71
2023/11/07 00:53:45;;;;;;;36.42;21.15;;;282.50;2278.40;;;;;;5041332;28;20033;-69
2023/11/07 00:56:11;;;;;;;41.63;23.20;;;282.50;2278.40;;;;;;5031053;28;20030;-70
2023/11/07 00:58:37;;;;;;;66.22;38.33;;;282.50;2278.40;;;;;;5030124;28;20123;-68
2023/11/07 01:01:03;;;;;;;51.65;29.02;;;282.40;2278.40;;;;;;5024022;28;20029;-65
2023/11/07 01:03:28;;;;;;;33.42;21.20;;;282.40;2278.40;;;;;;5022884;28;20083;-67
2023/11/07 01:05:54;;;;;;;50.90;28.52;;;282.30;2278.40;;;;;;5036515;28;20029;-70
2023/11/07 01:08:21;;;;;;;106.28;53.13;;;282.20;2278.40;;;;;;5036431;28;20529;-66
2023/11/07 01:10:47;;;;;;;87.32;45.13;;;282.10;2278.40;;;;;;5033225;28;20155;-69
2023/11/07 01:13:14;;;;;;;66.35;38.78;;;282.20;2278.40;;;;;;5049849;28;20108;-67
2023/11/07 01:15:40;;;;;;;51.83;27.00;;;282.20;2278.40;;;;;;5049048;28;20116;-72
2023/11/07 01:18:06;;;;;;;55.20;30.05;;;282.30;2278.40;;;;;;5048085;28;20124;-72
2023/11/07 01:20:33;;;;;;;47.17;28.27;;;282.30;2278.40;;;;;;5048610;28;20025;-67
2023/11/07 01:22:59;;;;;;;90.82;51.92;;;282.40;2278.40;;;;;;5049455;28;20112;-72
2023/11/07 01:25:24;;;;;;;113.15;69.38;;;282.20;2278.40;;;;;;5048298;28;20128;-71
2023/11/07 01:27:52;;;;;;;128.32;84.07;;;282.10;2278.40;;;;;;5049715;28;20079;-72
2023/11/07 01:30:20;;;;;;;162.23;106.38;;;282.10;2278.40;;;;;;5049058;28;20032;-68
2023/11/07 01:32:46;;;;;;;115.22;75.60;;;282.00;2278.40;;;;;;5049363;28;20104;-72
2023/11/07 01:35:12;;;;;;;117.18;71.72;;;282.00;2278.40;;;;;;5045178;28;20120;-68
2023/11/07 01:37:37;;;;;;;62.78;41.72;;;281.90;2278.40;;;;;;5039869;28;20027;-70
2023/11/07 01:40:04;;;;;;;54.38;32.20;;;281.90;2278.40;;;;;;5032201;28;20022;-73
2023/11/07 01:42:30;;;;;;;46.20;28.88;;;281.90;2278.40;;;;;;5036337;28;20025;-70
2023/11/07 01:44:56;;;;;;;45.63;29.55;;;281.90;2278.40;;;;;;5034766;28;20471;-72
2023/11/07 01:47:25;;;;;;;35.20;18.42;;;282.00;2278.40;;;;;;5049651;28;20033;-69
2023/11/07 01:49:51;;;;;;;63.60;38.63;;;282.00;2278.40;;;;;;5048701;28;20016;-71
2023/11/07 01:52:18;;;;;;;53.90;34.92;;;282.00;2278.40;;;;;;5049323;28;20060;-70
2023/11/07 01:54:46;;;;;;;27.55;15.63;;;282.00;2278.40;;;;;;5048320;28;20104;-73
2023/11/07 01:57:14;;;;;;;19.73;11.27;;;282.10;2278.40;;;;;;5048915;28;20029;-68
2023/11/07 01:59:41;;;;;;;48.35;27.02;;;282.10;2278.40;;;;;;5048890;28;20039;-71
2023/11/07 02:02:13;;;;;;;48.85;24.13;;;282.10;2278.40;;;;;;5048732;28;20041;-71
2023/11/07 02:04:39;;;;;;;33.42;16.58;;;282.20;2278.40;;;;;;5048200;28;20057;-67
2023/11/07 02:07:06;;;;;;;26.30;15.55;;;282.50;2278.40;;;;;;5048776;28;20121;-71
2023/11/07 02:09:32;;;;;;;35.65;19.58;;;282.20;2278.40;;;;;;5042602;28;20104;-71
2023/11/07 02:11:58;;;;;;;34.30;22.73;;;282.20;2278.40;;;;;;5023269;28;20061;-72
2023/11/07 02:14:35;;;;;;;52.17;40.17;;;282.20;2278.40;;;;;;5038168;28;20023;-73
2023/11/07 02:17:01;;;;;;;43.40;32.22;;;282.10;2278.40;;;;;;5048512;28;20032;-71
2023/11/07 02:19:27;;;;;;;32.33;22.33;;;282.10;2278.40;;;;;;5048875;28;20033;-72
2023/11/07 02:21:57;;;;;;;30.52;18.45;;;282.10;2278.40;;;;;;5050804;28;20041;-73
2023/11/07 02:24:23;;;;;;;26.58;15.45;;;282.20;2278.40;;;;;;5052166;28;20444;-71
2023/11/07 02:26:54;;;;;;;23.35;15.32;;;282.20;2278.40;;;;;;5052411;28;20032;-74
2023/11/07 02:29:21;;;;;;;23.58;14.35;;;282.20;2278.40;;;;;;5052663;28;20021;-70
2023/11/07 02:31:47;;;;;;;28.15;15.13;;;282.10;2278.40;;;;;;5052292;28;20060;-71
2023/11/07 02:34:13;;;;;;;27.58;18.08;;;282.10;2278.40;;;;;;5052077;28;20052;-69
2023/11/07 02:36:39;;;;;;;32.42;17.17;;;282.10;2278.40;;;;;;5052246;28;20041;-74
2023/11/07 02:39:08;;;;;;;27.40;17.17;;;282.10;2278.40;;;;;;5052107;28;20433;-74
2023/11/07 02:41:34;;;;;;;24.38;13.43;;;282.20;2278.40;;;;;;5038405;28;20031;-70
2023/11/07 02:44:00;;;;;;;28.65;15.88;;;282.20;2278.40;;;;;;5052138;28;20017;-73
2023/11/07 02:46:26;;;;;;;27.27;16.95;;;282.30;2278.40;;;;;;5024557;28;20029;-71
2023/11/07 02:48:52;;;;;;;28.48;16.85;;;282.20;2278.40;;;;;;5041259;28;20064;-74
2023/11/07 02:51:18;;;;;;;39.60;23.92;;;282.20;2278.40;;;;;;5051618;28;20116;-70
2023/11/07 02:53:47;;;;;;;31.02;18.48;;;282.00;2278.40;;;;;;5051704;28;20089;-74
2023/11/07 02:56:13;;;;;;;26.88;17.83;;;281.90;2278.40;;;;;;5051974;28;20033;-69
2023/11/07 02:58:39;;;;;;;25.77;17.75;;;282.00;2278.40;;;;;;5052077;28;20524;-69
2023/11/07 03:01:06;;;;;;;29.63;16.90;;;282.10;2278.40;;;;;;5051531;28;20382;-70
2023/11/07 03:03:32;;;;;;;12.70;9.27;;;282.20;2278.40;;;;;;5051901;28;20025;-70
2023/11/07 03:05:59;;;;;;;27.95;15.20;;;282.40;2278.40;;;;;;5051127;28;20032;-71
2023/11/07 03:08:25;;;;;;;31.58;23.02;;;307.20;2304.00;;;;;;5051614;28;20467;-73
2023/11/07 03:10:50;;;;;;;31.00;19.95;;;282.20;2278.40;;;;;;5051362;28;20032;-68
2023/11/07 03:13:18;;;;;;;34.60;18.95;;;282.20;2278.40;;;;;;5051440;28;20064;-73
2023/11/07 03:15:44;;;;;;;25.05;16.77;;;282.20;2278.40;;;;;;5050896;28;20041;-71
2023/11/07 03:18:10;;;;;;;24.05;11.63;;;282.30;2278.40;;;;;;5046381;28;20072;-69
2023/11/07 03:20:36;;;;;;;21.15;9.65;;;282.20;2278.40;;;;;;5033443;28;20036;-73
2023/11/07 03:23:02;;;;;;;20.75;10.40;;;282.30;2278.40;;;;;;5041378;28;20048;-68
2023/11/07 03:25:28;;;;;;;15.77;9.23;;;282.30;2278.40;;;;;;5048177;28;20544;-72
2023/11/07 03:27:54;;;;;;;16.25;9.50;;;282.30;2278.40;;;;;;5050883;28;20033;-70
2023/11/07 03:30:21;;;;;;;16.65;9.65;;;282.50;2278.40;;;;;;5051014;28;20025;-72
2023/11/07 03:32:46;;;;;;;18.70;7.65;;;282.50;2278.40;;;;;;5051117;28;20502;-72
2023/11/07 03:35:12;;;;;;;12.18;6.05;;;307.40;2304.00;;;;;;5050446;28;20079;-72
2023/11/07 03:37:39;;;;;;;14.55;6.85;;;307.70;2304.00;;;;;;5051004;28;20547;-73
2023/11/07 03:40:06;;;;;;;12.80;5.03;;;307.70;2304.00;;;;;;5050642;28;20028;-72
2023/11/07 03:42:32;;;;;;;9.75;3.75;;;307.80;2304.00;;;;;;5050743;28;20032;-73
2023/11/07 03:44:58;;;;;;;12.65;5.72;;;307.90;2304.00;;;;;;5050596;28;20074;-72
2023/11/07 03:47:24;;;;;;;20.98;12.48;;;308.00;2304.00;;;;;;5051170;28;20503;-68
2023/11/07 03:49:50;;;;;;;38.05;20.90;;;332.80;2329.60;;;;;;5031608;28;20032;-68
2023/11/07 03:52:16;;;;;;;20.15;6.93;;;332.80;2329.60;;;;;;5042581;28;20029;-73
2023/11/07 03:54:42;;;;;;;7.80;3.90;;;333.00;2329.60;;;;;;5049532;28;20028;-71
2023/11/07 03:57:07;;;;;;;13.95;7.10;;;333.10;2329.60;;;;;;5028322;28;20048;-73
2023/11/07 03:59:33;;;;;;;14.85;4.25;;;333.10;2329.60;;;;;;5050490;28;20032;-73
2023/11/07 04:02:00;;;;;;;11.30;4.80;;;333.20;2329.60;;;;;;5050542;28;20701;-73
2023/11/07 04:04:26;;;;;;;14.70;5.07;;;333.20;2329.60;;;;;;5050081;28;20442;-72
2023/11/07 04:06:52;;;;;;;11.75;5.28;;;333.20;2329.60;;;;;;5033545;28;20036;-70
2023/11/07 04:09:19;;;;;;;17.63;9.13;;;333.20;2329.60;;;;;;5044038;28;20037;-67
2023/11/07 04:11:45;;;;;;;19.75;13.02;;;333.10;2329.60;;;;;;5050472;28;20023;-72
2023/11/07 04:14:11;;;;;;;26.45;15.70;;;333.20;2329.60;;;;;;5050688;28;20021;-69
2023/11/07 04:16:38;;;;;;;27.17;16.67;;;332.80;2329.60;;;;;;5050035;28;20490;-70
2023/11/07 04:19:04;;;;;;;36.40;20.80;;;308.10;2304.00;;;;;;5044885;28;20018;-68
2023/11/07 04:21:30;;;;;;;26.83;16.92;;;308.10;2304.00;;;;;;5041337;28;20132;-69
2023/11/07 04:23:55;;;;;;;22.20;14.43;;;308.00;2304.00;;;;;;5049535;28;20017;-71
2023/11/07 04:26:21;;;;;;;26.83;17.90;;;307.90;2304.00;;;;;;5049669;28;20021;-67
2023/11/07 04:28:47;;;;;;;17.85;13.00;;;307.80;2304.00;;;;;;5049237;28;20021;-72
2023/11/07 04:31:13;;;;;;;21.50;9.30;;;307.90;2304.00;;;;;;5049892;28;20123;-68
2023/11/07 04:33:38;;;;;;;17.08;10.00;;;307.90;2304.00;;;;;;5049430;28;20064;-71
2023/11/07 04:36:05;;;;;;;16.70;11.25;;;308.00;2304.00;;;;;;5049391;28;20032;-69
2023/11/07 04:38:31;;;;;;;13.98;8.13;;;308.00;2304.00;;;;;;5045968;28;20020;-70
2023/11/07 04:40:57;;;;;;;17.45;11.15;;;308.00;2304.00;;;;;;5020823;28;20399;-70
2023/11/07 04:43:23;;;;;;;21.65;11.95;;;308.00;2304.00;;;;;;5044402;28;20024;-69
2023/11/07 04:45:49;;;;;;;16.77;11.30;;;308.00;2304.00;;;;;;5049689;28;20479;-74
2023/11/07 04:48:14;;;;;;;21.83;12.73;;;308.10;2304.00;;;;;;5049550;28;20134;-73
2023/11/07 04:50:40;;;;;;;16.70;10.93;;;308.10;2304.00;;;;;;5048349;28;20082;-74
2023/11/07 04:53:07;;;;;;;16.48;9.85;;;308.10;2304.00;;;;;;5049471;28;20032;-73
2023/11/07 04:55:33;;;;;;;14.38;8.27;;;308.00;2304.00;;;;;;5049543;28;20123;-73
2023/11/07 04:58:01;;;;;;;12.07;6.57;;;308.00;2304.00;;;;;;5048898;28;20060;-67
2023/11/07 05:00:27;;;;;;;10.68;4.57;;;308.00;2304.00;;;;;;5049196;28;20593;-72
2023/11/07 05:02:53;;;;;;;8.65;3.55;;;308.00;2304.00;;;;;;5044430;28;20057;-73
2023/11/07 05:05:18;;;;;;;11.05;4.25;;;332.80;2329.60;;;;;;5029325;28;20064;-73
2023/11/07 05:07:45;;;;;;;8.13;4.53;;;308.10;2304.00;;;;;;5034723;28;20028;-71
2023/11/07 05:10:12;;;;;;;26.25;11.88;;;308.10;2304.00;;;;;;5049755;28;20491;-74
2023/11/07 05:12:38;;;;;;;30.95;21.98;;;308.10;2304.00;;;;;;5049004;28;20021;-70
2023/11/07 05:15:05;;;;;;;29.08;19.50;;;307.80;2304.00;;;;;;5049082;28;20043;-71
2023/11/07 05:17:31;;;;;;;16.45;8.13;;;307.80;2304.00;;;;;;5049594;28;20033;-72
2023/11/07 05:19:57;;;;;;;10.88;5.45;;;307.80;2304.00;;;;;;5049308;28;20021;-71
2023/11/07 05:22:24;;;;;;;9.55;4.00;;;307.80;2304.00;;;;;;5048980;28;20056;-71
2023/11/07 05:24:51;;;;;;;33.22;16.05;;;308.00;2304.00;;;;;;5049280;28;20463;-72
2023/11/07 05:27:17;;;;;;;31.23;15.98;;;308.00;2304.00;;;;;;5049180;28;20054;-72
2023/11/07 05:29:43;;;;;;;19.20;12.02;;;308.10;2304.00;;;;;;5048991;28;20087;-71
2023/11/07 05:32:08;;;;;;;22.58;13.90;;;308.00;2304.00;;;;;;5049338;28;20032;-73
2023/11/07 05:34:39;;;;;;;28.60;18.13;;;307.90;2304.00;;;;;;5036787;28;20111;-68
2023/11/07 05:37:05;;;;;;;33.85;21.95;;;307.70;2304.00;;;;;;5031697;28;20038;-69
2023/11/07 05:39:31;;;;;;;28.83;21.38;;;307.70;2304.00;;;;;;5043789;28;20021;-74
2023/11/07 05:41:58;;;;;;;32.97;17.55;;;307.80;2304.00;;;;;;5028140;28;20034;-71
2023/11/07 05:44:24;;;;;;;37.42;21.20;;;307.70;2304.00;;;;;;5039313;28;20033;-68
2023/11/07 05:46:50;;;;;;;25.52;14.48;;;307.80;2304.00;;;;;;5048840;28;20023;-73
2023/11/07 05:49:16;;;;;;;31.65;21.67;;;307.90;2304.00;;;;;;5035121;28;20108;-65
2023/11/07 05:51:42;;;;;;;34.63;21.33;;;307.90;2304.00;;;;;;5049101;28;20441;-74
2023/11/07 05:54:09;;;;;;;34.45;20.05;;;308.00;2304.00;;;;;;5040629;28;20116;-74
2023/11/07 05:56:35;;;;;;;28.50;17.80;;;307.80;2304.00;;;;;;5045731;28;20037;-68
2023/11/07 05:59:03;;;;;;;47.20;33.25;;;307.60;2304.00;;;;;;5052895;28;20024;-69
2023/11/07 06:01:29;;;;;;;22.35;15.43;;;307.70;2304.00;;;;;;5041034;28;20064;-72
2023/11/07 06:03:55;;;;;;;32.08;14.63;;;307.70;2304.00;;;;;;5049745;28;20049;-72
2023/11/07 06:06:20;;;;;;;25.27;14.30;;;307.80;2304.00;;;;;;5052685;28;20028;-74
2023/11/07 06:08:46;;;;;;;29.33;13.77;;;307.90;2304.00;;;;;;5052537;28;20031;-70
2023/11/07 06:11:12;;;;;;;20.88;13.00;;;308.00;2304.00;;;;;;5053041;28;20494;-68
2023/11/07 06:13:38;;;;;;;25.13;13.52;;;308.10;2304.00;;;;;;5052569;28;20410;-70
2023/11/07 06:16:05;;;;;;;31.23;19.33;;;332.80;2329.60;;;;;;5052630;28;20040;-66
2023/11/07 06:18:32;;;;;;;27.10;17.13;;;332.90;2329.60;;;;;;5052623;28;20036;-72
2023/11/07 06:20:58;;;;;;;23.30;15.63;;;333.00;2329.60;;;;;;5026040;28;20445;-70
2023/11/07 06:23:24;;;;;;;19.73;13.32;;;333.10;2329.60;;;;;;5052127;28;20029;-71
2023/11/07 06:25:50;;;;;;;22.75;12.55;;;333.10;2329.60;;;;;;5052655;28;20064;-72
2023/11/07 06:28:16;;;;;;;26.65;15.57;;;333.20;2329.60;;;;;;5052127;28;20025;-70
2023/11/07 06:30:43;;;;;;;18.00;11.45;;;333.20;2329.60;;;;;;5052193;28;20028;-68
2023/11/07 06:33:09;;;;;;;20.95;11.40;;;333.30;2329.60;;;;;;5052239;28;20516;-72
2023/11/07 06:35:35;;;;;;;19.55;11.75;;;333.20;2329.60;;;;;;5051818;28;20025;-71
2023/11/07 06:38:01;;;;;;;16.35;12.07;;;333.40;2329.60;;;;;;5051656;28;20036;-71
2023/11/07 06:40:26;;;;;;;14.82;9.48;;;333.60;2329.60;;;;;;5039453;28;20021;-70
2023/11/07 06:42:52;;;;;;;46.35;28.55;;;358.40;2329.60;;;;;;5051996;28;20025;-66
2023/11/07 06:45:18;;;;;;;43.47;24.45;;;358.40;2329.60;;;;;;5051974;28;20360;-66
2023/11/07 06:47:46;;;;;;;22.17;14.05;;;358.50;2329.60;;;;;;5051062;28;21095;-72
2023/11/07 06:50:14;;;;;;;26.10;16.17;;;358.70;2329.60;;;;;;5041282;28;20080;-70
2023/11/07 06:52:51;;;;;;;17.27;11.65;;;358.70;2329.60;;;;;;5051491;28;20053;-65
2023/11/07 06:55:21;;;;;;;15.80;9.07;;;358.80;2329.60;;;;;;5051875;28;20047;-66
2023/11/07 06:57:48;;;;;;;12.73;6.60;;;358.80;2329.60;;;;;;5051627;28;20025;-67
2023/11/07 07:00:14;;;;;;;13.25;7.47;;;358.90;2329.60;;;;;;5051657;28;20548;-71
2023/11/07 07:02:41;;;;;;;16.20;8.25;;;359.00;2329.60;;;;;;5046046;28;20452;-62
2023/11/07 07:05:12;;;;;;;22.83;13.95;;;359.00;2329.60;;;;;;5049015;28;20104;-62
2023/11/07 07:07:40;;;;;;;15.82;8.82;;;359.00;2329.60;;;;;;5045078;28;20033;-64
2023/11/07 07:10:09;;;;;;;17.38;10.48;;;359.20;2329.60;;;;;;5040554;28;20045;-64
2023/11/07 07:12:38;;;;;;;16.38;9.45;;;359.30;2329.60;;;;;;5041238;28;20387;-62
2023/11/07 07:15:06;;;;;;;58.78;33.38;;;384.00;2329.60;;;;;;5040190;28;20464;-62
2023/11/07 07:17:32;;;;;;;46.83;25.80;;;384.00;2329.60;;;;;;5032468;28;20087;-65
2023/11/07 07:19:57;;;;;;;27.33;21.33;;;384.10;2329.60;;;;;;5043864;28;20025;-61
2023/11/07 07:22:27;;;;;;;28.52;23.88;;;384.10;2329.60;;;;;;5032089;28;20506;-61
2023/11/07 07:24:56;;;;;;;33.67;23.55;;;384.20;2329.60;;;;;;5032180;28;20025;-63
2023/11/07 07:27:27;;;;;;;68.43;43.58;;;384.30;2329.60;;;;;;5026519;28;20021;-65
2023/11/07 07:29:56;;;;;;;70.00;48.88;;;384.30;2329.60;;;;;;5037217;28;20041;-62
2023/11/07 07:32:22;;;;;;;65.93;44.55;;;384.30;2329.60;;;;;;5041201;28;20617;-62
2023/11/07 07:34:49;;;;;;;58.83;40.15;;;384.40;2329.60;;;;;;5034169;28;20108;-63
2023/11/07 07:37:17;;;;;;;60.15;36.30;;;384.50;2329.60;;;;;;5041508;28;20395;-63
2023/11/07 07:39:44;;;;;;;85.03;61.08;;;384.60;2329.60;;;;;;5046061;28;20160;-62
2023/11/07 07:42:10;;;;;;;97.28;69.93;;;384.40;2329.60;;;;;;5044878;28;20162;-62
2023/11/07 07:44:36;;;;;;;98.72;64.55;;;384.30;2329.60;;;;;;5046206;28;20531;-62
2023/11/07 07:47:02;;;;;;;66.63;44.65;;;359.20;2329.60;;;;;;5046107;28;20431;-66
2023/11/07 07:49:30;;;;;;;60.65;46.00;;;358.90;2329.60;;;;;;5045142;28;20026;-68
2023/11/07 07:52:01;;;;;;;59.22;43.20;;;359.00;2329.60;;;;;;5049613;28;20025;-65
2023/11/07 07:54:29;;;;;;;64.50;45.85;;;359.20;2329.60;;;;;;5050923;28;20633;-67
2023/11/07 07:56:56;;;;;;;48.83;34.30;;;384.10;2329.60;;;;;;5050534;28;20067;-67
2023/11/07 07:59:25;;;;;;;54.33;35.60;;;384.30;2329.60;;;;;;5050378;28;20064;-67
2023/11/07 08:01:56;;;;;;;61.45;39.55;;;384.40;2329.60;;;;;;5050730;28;20055;-68
2023/11/07 08:04:27;;;;;;;83.70;57.95;;;384.60;2329.60;;;;;;5050348;28;20084;-66
2023/11/07 08:06:53;;;;;;;84.22;58.72;;;384.90;2329.60;;;;;;5050200;28;20099;-71
2023/11/07 08:09:19;;;;;;;102.82;68.05;;;384.60;2329.60;;;;;;5050233;28;20029;-67
2023/11/07 08:11:50;;;;;;;715.00;525.05;;;384.60;2329.60;;;;;;5050216;28;20045;-69
2023/11/07 08:14:19;;;;;;;77.97;53.38;;;384.60;2329.60;;;;;;5050442;28;20383;-66
2023/11/07 08:16:45;;;;;;;90.32;53.15;;;384.50;2329.60;;;;;;5037929;28;20034;-67
2023/11/07 08:19:11;;;;;;;78.95;50.53;;;384.80;2329.60;;;;;;5047598;28;20079;-66
2023/11/07 08:21:41;;;;;;;104.05;72.35;;;384.90;2329.60;;;;;;5040676;28;20110;-64
2023/11/07 08:24:08;;;;;;;96.15;64.43;;;409.70;2355.20;;;;;;5035046;28;20041;-64
2023/11/07 08:26:36;;;;;;;101.20;69.80;;;410.00;2355.20;;;;;;5039378;28;20028;-66
2023/11/07 08:29:08;;;;;;;88.95;56.30;;;410.20;2355.20;;;;;;5033751;28;20027;-69
2023/11/07 08:31:37;;;;;;;31.77;19.67;;;410.30;2355.20;;;;;;5043615;28;20029;-69
2023/11/07 08:34:04;;;;;;;33.63;19.33;;;410.40;2355.20;;;;;;5049235;28;20116;-70
2023/11/07 08:36:31;;;;;;;14.93;7.93;;;410.50;2355.20;;;;;;5050040;28;20120;-69
2023/11/07 08:38:57;;;;;;;12.70;5.32;;;435.40;2355.20;;;;;;5043379;28;20069;-70
2023/11/07 08:41:26;;;;;;;19.60;8.05;;;435.50;2355.20;;;;;;5043573;28;20036;-66
2023/11/07 08:43:52;;;;;;;7.32;4.00;;;435.60;2355.20;;;;;;5024581;28;20077;-69
2023/11/07 08:46:23;;;;;;;16.85;7.95;;;435.70;2355.20;;;;;;5050046;28;20112;-66
2023/11/07 08:48:50;;;;;;;13.20;7.00;;;435.80;2355.20;;;;;;5049928;28;20036;-69
2023/11/07 08:51:17;;;;;;;13.02;6.03;;;435.90;2355.20;;;;;;5051265;28;20024;-69
2023/11/07 08:53:43;;;;;;;11.23;4.50;;;435.90;2355.20;;;;;;5053310;28;20078;-66
2023/11/07 08:56:12;;;;;;;10.13;4.38;;;436.00;2355.20;;;;;;5052690;28;20067;-67
2023/11/07 08:58:39;;;;;;;11.43;3.70;;;436.10;2355.20;;;;;;5053146;28;20028;-66
2023/11/07 09:01:05;;;;;;;10.00;5.00;;;436.10;2355.20;;;;;;5052610;28;20482;-66
2023/11/07 09:03:31;;;;;;;21.20;6.95;;;460.90;2380.80;;;;;;5047204;28;20025;-66
2023/11/07 09:05:57;;;;;;;12.82;5.80;;;461.20;2380.80;;;;;;5046929;28;20139;-67
2023/11/07 09:08:23;;;;;;;24.40;15.38;;;461.60;2380.80;;;;;;5047100;28;20021;-62
2023/11/07 09:10:49;;;;;;;27.95;12.25;;;461.60;2380.80;;;;;;5046607;28;20094;-65
2023/11/07 09:13:14;;;;;;;34.22;18.23;;;461.70;2380.80;;;;;;5047375;28;20115;-66
2023/11/07 09:15:43;;;;;;;26.50;15.55;;;486.60;2380.80;;;;;;5046962;28;20029;-68
2023/11/07 09:18:10;;;;;;;95.75;64.80;;;486.80;2355.20;;;;;;5046324;28;20467;-67
2023/11/07 09:20:37;;;;;;;111.40;79.10;;;486.90;2380.80;;;;;;5046610;28;20047;-70
2023/11/07 09:23:04;;;;;;;125.80;91.65;;;461.70;2380.80;;;;;;5037103;28;20129;-66
2023/11/07 09:25:30;;;;;;;123.95;88.95;;;461.40;2380.80;;;;;;5044641;28;20013;-66
2023/11/07 09:27:56;;;;;;;119.38;84.13;;;461.20;2380.80;;;;;;5046726;28;20033;-65
2023/11/07 09:30:22;;;;;;;119.40;76.18;;;460.90;2380.80;;;;;;5048602;28;20021;-67
2023/11/07 09:32:48;;;;;;;110.28;80.38;;;436.00;2355.20;;;;;;5050970;28;20033;-66
2023/11/07 09:35:14;;;;;;;115.00;75.63;;;435.70;2355.20;;;;;;5051188;28;20032;-66
2023/11/07 09:37:40;;;;;;;139.82;98.28;;;436.10;2355.20;;;;;;5051069;28;20482;-71
2023/11/07 09:40:19;;;;;;;110.50;76.97;;;461.00;2380.80;;;;;;5051009;28;20055;-66
2023/11/07 09:42:48;;;;;;;117.65;78.25;;;461.20;2380.80;;;;;;5050442;28;20078;-66
2023/11/07 09:45:18;;;;;;;116.43;79.72;;;461.00;2380.80;;;;;;5044804;28;20080;-69
2023/11/07 09:47:48;;;;;;;98.03;71.03;;;461.60;2380.80;;;;;;5045011;28;20067;-68
2023/11/07 09:50:18;;;;;;;91.25;64.85;;;486.40;2380.80;;;;;;5051080;28;20029;-67
2023/11/07 09:52:46;;;;;;;82.72;63.20;;;486.60;2380.80;;;;;;5050932;28;20088;-65
2023/11/07 09:55:15;;;;;;;88.72;66.35;;;486.80;2380.80;;;;;;5050643;28;20385;-69
2023/11/07 09:57:55;;;;;;;96.43;70.28;;;486.90;2380.80;;;;;;5050453;28;20025;-66
2023/11/07 10:00:23;;;;;;;102.47;79.25;;;486.70;2380.80;;;;;;5050630;28;20040;-67
2023/11/07 10:02:50;;;;;;;81.03;53.10;;;461.70;2380.80;;;;;;5050636;28;20048;-66
2023/11/07 10:05:19;;;;;;;53.28;34.58;;;486.50;2380.80;;;;;;5050899;28;20100;-66
2023/11/07 10:07:51;;;;;;;62.42;34.67;;;486.80;2380.80;;;;;;5050217;28;20021;-68
2023/11/07 10:10:18;;;;;;;40.83;24.77;;;487.20;2380.80;;;;;;5050253;28;20021;-67
2023/11/07 10:12:45;;;;;;;50.78;29.25;;;487.20;2380.80;;;;;;5050796;28;20033;-67
2023/11/07 10:15:16;;;;;;;41.92;27.02;;;487.30;2380.80;;;;;;5050498;28;20061;-66
2023/11/07 10:18:06;;;;;;;50.20;32.58;;;487.30;2380.80;;;;;;5050530;28;20062;-68
2023/11/07 10:20:34;;;;;;;99.82;71.38;;;512.10;2380.80;;;;;;5050222;28;20575;-66
2023/11/07 10:23:00;;;;;;;73.50;49.67;;;512.40;2380.80;;;;;;5050262;28;20025;-65
2023/11/07 10:25:31;;;;;;;66.07;45.28;;;512.50;2380.80;;;;;;5049997;28;20040;-67
2023/11/07 10:28:07;;;;;;;55.72;36.72;;;512.70;2380.80;;;;;;5050248;28;20470;-66
2023/11/07 10:30:41;;;;;;;47.22;33.50;;;512.80;2380.80;;;;;;5049689;28;20064;-66
2023/11/07 10:33:08;;;;;;;44.42;29.83;;;512.90;2380.80;;;;;;5049525;28;20497;-67
2023/11/07 10:35:54;;;;;;;45.25;31.17;;;537.60;2406.40;;;;;;5049614;28;20029;-65
2023/11/07 10:38:21;;;;;;;52.75;32.60;;;512.90;2380.80;;;;;;5049809;28;20025;-66
2023/11/07 10:40:48;;;;;;;30.63;15.98;;;537.80;2406.40;;;;;;5049487;28;20029;-66
2023/11/07 10:43:30;;;;;;;18.00;11.57;;;537.90;2304.00;;;;;;5036333;28;20021;-68
2023/11/07 10:45:58;;;;;;;14.73;8.13;;;538.00;2329.60;;;;;;5049540;28;20505;-66
2023/11/07 10:48:26;;;;;;;16.13;7.68;;;538.10;2329.60;;;;;;5048926;28;20068;-68
2023/11/07 10:50:53;;;;;;;10.82;5.72;;;538.20;2278.40;;;;;;5051861;28;20470;-72
2023/11/07 10:53:19;;;;;;;10.50;4.93;;;538.30;2227.20;;;;;;5051893;28;20017;-66
2023/11/07 10:55:46;;;;;;;8.38;3.65;;;538.30;2176.00;;;;;;5052110;28;20472;-66
2023/11/07 10:58:16;;;;;;;9.05;4.25;;;538.30;2176.00;;;;;;5025965;28;20025;-69
2023/11/07 11:00:42;;;;;;;10.52;4.82;;;538.10;2176.00;;;;;;5051805;28;20383;-67
2023/11/07 11:03:12;;;;;;;8.25;4.88;;;538.30;2201.60;;;;;;5051789;28;20446;-66
2023/11/07 11:05:41;;;;;;;9.00;4.30;;;538.30;2227.20;;;;;;5051354;28;20029;-71
2023/11/07 11:08:09;;;;;;;9.13;3.83;;;538.20;2201.60;;;;;;5051748;28;20040;-70
2023/11/07 11:10:37;;;;;;;12.25;5.15;;;538.30;2227.20;;;;;;5052004;28;20025;-67
2023/11/07 11:13:03;;;;;;;11.25;3.90;;;538.30;2150.40;;;;;;5051427;28;20023;-72
2023/11/07 11:15:34;;;;;;;9.32;3.95;;;538.30;2124.80;;;;;;5049258;28;20040;-66
2023/11/07 11:18:05;;;;;;;6.45;3.35;;;538.30;2176.00;;;;;;5040975;28;20060;-67
2023/11/07 11:20:58;;;;;;;9.23;4.53;;;538.20;2124.80;;;;;;5051197;28;20033;-66
2023/11/07 11:23:30;;;;;;;9.48;4.75;;;538.30;2150.40;;;;;;5050843;28;20024;-67
2023/11/07 11:26:17;;;;;;;6.15;3.08;;;538.30;2124.80;;;;;;5051040;28;20029;-67
2023/11/07 11:28:43;;;;;;;6.85;3.08;;;538.30;2124.80;;;;;;5051013;28;20024;-66
2023/11/07 11:31:18;;;;;;;6.18;2.95;;;538.30;2150.40;;;;;;5050984;28;20424;-72
2023/11/07 11:33:45;;;;;;;8.30;2.78;;;538.30;2150.40;;;;;;5051250;28;20033;-71
2023/11/07 11:36:38;;;;;;;11.05;3.20;;;538.10;2176.00;;;;;;5050942;28;20141;-67
2023/11/07 11:39:45;;;;;;;7.32;3.05;;;538.10;2176.00;;;;;;5051382;28;20025;-72
2023/11/07 11:42:11;;;;;;;9.13;3.30;;;538.40;2099.20;;;;;;5051167;28;20025;-66
2023/11/07 11:44:38;;;;;;;5.45;2.67;;;538.50;2099.20;;;;;;5050937;28;20037;-67
2023/11/07 11:47:04;;;;;;;8.10;3.03;;;563.30;2124.80;;;;;;5050756;28;20025;-66
2023/11/07 11:49:32;;;;;;;6.78;3.58;;;563.40;2073.60;;;;;;5051012;28;20032;-68
2023/11/07 11:51:58;;;;;;;10.35;3.58;;;563.40;2099.20;;;;;;5050751;28;20528;-67
2023/11/07 11:54:26;;;;;;;5.07;2.95;;;563.30;2073.60;;;;;;5050605;28;20035;-67
2023/11/07 11:56:55;;;;;;;7.25;2.78;;;563.30;2073.60;;;;;;5050762;28;20033;-67
2023/11/07 11:59:25;;;;;;;54.70;33.20;;;563.30;2150.40;;;;;;5049703;28;20151;-67
2023/11/07 12:01:59;;;;;;;13.40;6.88;;;538.50;2099.20;;;;;;5050618;28;20435;-67